sensor_id;sensor_type;location;lat;lon;timestamp;P1;durP1;ratioP1;P2;durP2;ratioP2
1949;SDS011;975;48.760;9.152;2023-02-28T00:00:27;2.45;;;1.48;;
1949;SDS011;975;48.760;9.152;2023-02-28T00:02:58;3.28;;;1.70;;
1949;SDS011;975;48.760;9.152;2023-02-28T00:05:26;2.88;;;1.70;;
1949;SDS011;975;48.760;9.152;2023-02-28T00:07:54;2.70;;;1.65;;
1949;SDS011;975;48.760;9.152;2023-02-28T00:10:23;3.28;;;1.17;;
1949;SDS011;975;48.760;9.152;2023-02-28T00:12:51;6.78;;;2.10;;
1949;SDS011;975;48.760;9.152;2023-02-28T00:15:24;2.72;;;1.58;;
1949;SDS011;975;48.760;9.152;2023-02-28T00:17:53;2.80;;;1.60;;
1949;SDS011;975;48.760;9.152;2023-02-28T00:20:20;3.38;;;1.33;;
1949;SDS011;975;48.760;9.152;2023-02-28T00:22:48;3.05;;;1.85;;
1949;SDS011;975;48.760;9.152;2023-02-28T00:25:17;3.35;;;1.63;;
1949;SDS011;975;48.760;9.152;2023-02-28T00:27:46;4.05;;;1.50;;
1949;SDS011;975;48.760;9.152;2023-02-28T00:30:20;3.92;;;1.60;;
1949;SDS011;975;48.760;9.152;2023-02-28T00:32:48;2.33;;;1.33;;
1949;SDS011;975;48.760;9.152;2023-02-28T00:35:17;4.32;;;1.75;;
1949;SDS011;975;48.760;9.152;2023-02-28T00:37:45;3.72;;;1.70;;
1949;SDS011;975;48.760;9.152;2023-02-28T00:40:12;4.30;;;1.75;;
1949;SDS011;975;48.760;9.152;2023-02-28T00:42:40;4.43;;;1.65;;
1949;SDS011;975;48.760;9.152;2023-02-28T00:45:07;5.10;;;1.77;;
1949;SDS011;975;48.760;9.152;2023-02-28T00:47:35;2.47;;;1.70;;
1949;SDS011;975;48.760;9.152;2023-02-28T00:50:06;3.35;;;1.95;;
1949;SDS011;975;48.760;9.152;2023-02-28T00:52:38;3.22;;;1.52;;
1949;SDS011;975;48.760;9.152;2023-02-28T00:55:06;3.83;;;1.70;;
1949;SDS011;975;48.760;9.152;2023-02-28T00:57:33;4.15;;;2.08;;
1949;SDS011;975;48.760;9.152;2023-02-28T01:00:01;5.25;;;1.73;;
1949;SDS011;975;48.760;9.152;2023-02-28T01:02:29;4.15;;;2.33;;
1949;SDS011;975;48.760;9.152;2023-02-28T01:04:56;2.08;;;1.52;;
1949;SDS011;975;48.760;9.152;2023-02-28T01:07:24;5.28;;;1.85;;
1949;SDS011;975;48.760;9.152;2023-02-28T01:09:53;3.83;;;1.73;;
1949;SDS011;975;48.760;9.152;2023-02-28T01:12:20;5.10;;;1.73;;
1949;SDS011;975;48.760;9.152;2023-02-28T01:14:48;3.60;;;1.60;;
1949;SDS011;975;48.760;9.152;2023-02-28T01:17:15;3.20;;;1.73;;
1949;SDS011;975;48.760;9.152;2023-02-28T01:19:42;4.57;;;1.92;;
1949;SDS011;975;48.760;9.152;2023-02-28T01:22:11;5.75;;;2.72;;
1949;SDS011;975;48.760;9.152;2023-02-28T01:24:41;4.40;;;1.85;;
1949;SDS011;975;48.760;9.152;2023-02-28T01:27:10;4.63;;;1.88;;
1949;SDS011;975;48.760;9.152;2023-02-28T01:29:38;3.75;;;1.80;;
1949;SDS011;975;48.760;9.152;2023-02-28T01:32:06;3.92;;;1.88;;
1949;SDS011;975;48.760;9.152;2023-02-28T01:34:33;2.25;;;1.73;;
1949;SDS011;975;48.760;9.152;2023-02-28T01:37:08;7.30;;;2.33;;
1949;SDS011;975;48.760;9.152;2023-02-28T01:39:35;3.42;;;2.00;;
1949;SDS011;975;48.760;9.152;2023-02-28T01:42:03;2.60;;;1.73;;
1949;SDS011;975;48.760;9.152;2023-02-28T01:47:21;4.90;;;1.90;;
1949;SDS011;975;48.760;9.152;2023-02-28T01:49:49;6.65;;;1.70;;
1949;SDS011;975;48.760;9.152;2023-02-28T01:52:17;6.10;;;2.03;;
1949;SDS011;975;48.760;9.152;2023-02-28T01:54:46;7.68;;;2.40;;
1949;SDS011;975;48.760;9.152;2023-02-28T01:57:17;4.18;;;2.35;;
1949;SDS011;975;48.760;9.152;2023-02-28T01:59:46;4.35;;;2.10;;
1949;SDS011;975;48.760;9.152;2023-02-28T02:02:15;5.78;;;2.50;;
1949;SDS011;975;48.760;9.152;2023-02-28T02:04:45;6.30;;;2.22;;
1949;SDS011;975;48.760;9.152;2023-02-28T02:07:15;4.93;;;2.72;;
1949;SDS011;975;48.760;9.152;2023-02-28T02:09:43;4.07;;;2.47;;
1949;SDS011;975;48.760;9.152;2023-02-28T02:12:12;3.38;;;1.83;;
1949;SDS011;975;48.760;9.152;2023-02-28T02:14:48;4.72;;;1.77;;
1949;SDS011;975;48.760;9.152;2023-02-28T02:17:20;5.50;;;2.72;;
1949;SDS011;975;48.760;9.152;2023-02-28T02:19:58;5.75;;;2.17;;
1949;SDS011;975;48.760;9.152;2023-02-28T02:22:37;5.13;;;2.65;;
1949;SDS011;975;48.760;9.152;2023-02-28T02:25:12;4.07;;;2.08;;
1949;SDS011;975;48.760;9.152;2023-02-28T02:27:56;6.18;;;2.40;;
1949;SDS011;975;48.760;9.152;2023-02-28T02:33:22;4.95;;;2.10;;
1949;SDS011;975;48.760;9.152;2023-02-28T02:35:56;3.88;;;2.33;;
1949;SDS011;975;48.760;9.152;2023-02-28T02:38:33;4.63;;;2.58;;
1949;SDS011;975;48.760;9.152;2023-02-28T02:41:04;5.65;;;2.50;;
1949;SDS011;975;48.760;9.152;2023-02-28T02:43:34;6.82;;;2.17;;
1949;SDS011;975;48.760;9.152;2023-02-28T02:46:06;4.75;;;2.15;;
1949;SDS011;975;48.760;9.152;2023-02-28T02:48:38;5.63;;;2.45;;
1949;SDS011;975;48.760;9.152;2023-02-28T02:51:10;4.90;;;2.58;;
1949;SDS011;975;48.760;9.152;2023-02-28T02:53:41;6.90;;;2.25;;
1949;SDS011;975;48.760;9.152;2023-02-28T02:56:14;5.28;;;2.38;;
1949;SDS011;975;48.760;9.152;2023-02-28T02:58:45;3.00;;;1.70;;
1949;SDS011;975;48.760;9.152;2023-02-28T03:01:16;4.32;;;2.25;;
1949;SDS011;975;48.760;9.152;2023-02-28T03:03:54;3.40;;;2.13;;
1949;SDS011;975;48.760;9.152;2023-02-28T03:06:33;5.30;;;2.08;;
1949;SDS011;975;48.760;9.152;2023-02-28T03:09:01;8.32;;;2.47;;
1949;SDS011;975;48.760;9.152;2023-02-28T03:11:30;2.90;;;1.88;;
1949;SDS011;975;48.760;9.152;2023-02-28T03:14:08;4.78;;;2.45;;
1949;SDS011;975;48.760;9.152;2023-02-28T03:16:49;7.05;;;2.40;;
1949;SDS011;975;48.760;9.152;2023-02-28T03:19:38;5.65;;;2.40;;
1949;SDS011;975;48.760;9.152;2023-02-28T03:22:19;4.97;;;2.53;;
1949;SDS011;975;48.760;9.152;2023-02-28T03:24:53;7.47;;;2.58;;
1949;SDS011;975;48.760;9.152;2023-02-28T03:27:23;9.55;;;3.70;;
1949;SDS011;975;48.760;9.152;2023-02-28T03:29:51;5.63;;;2.72;;
1949;SDS011;975;48.760;9.152;2023-02-28T03:32:24;5.65;;;3.00;;
1949;SDS011;975;48.760;9.152;2023-02-28T03:34:55;6.75;;;3.05;;
1949;SDS011;975;48.760;9.152;2023-02-28T03:37:33;4.40;;;2.65;;
1949;SDS011;975;48.760;9.152;2023-02-28T03:40:03;5.55;;;2.72;;
1949;SDS011;975;48.760;9.152;2023-02-28T03:42:34;4.93;;;2.75;;
1949;SDS011;975;48.760;9.152;2023-02-28T03:45:04;7.55;;;3.15;;
1949;SDS011;975;48.760;9.152;2023-02-28T03:47:33;4.70;;;2.65;;
1949;SDS011;975;48.760;9.152;2023-02-28T03:50:03;5.28;;;2.90;;
1949;SDS011;975;48.760;9.152;2023-02-28T03:52:34;8.23;;;3.22;;
1949;SDS011;975;48.760;9.152;2023-02-28T03:55:03;7.20;;;2.97;;
1949;SDS011;975;48.760;9.152;2023-02-28T03:57:35;4.00;;;2.00;;
1949;SDS011;975;48.760;9.152;2023-02-28T04:00:08;5.60;;;2.85;;
1949;SDS011;975;48.760;9.152;2023-02-28T04:02:37;4.35;;;2.47;;
1949;SDS011;975;48.760;9.152;2023-02-28T04:05:05;5.18;;;2.55;;
1949;SDS011;975;48.760;9.152;2023-02-28T04:07:33;5.65;;;2.83;;
1949;SDS011;975;48.760;9.152;2023-02-28T04:10:02;7.05;;;2.70;;
1949;SDS011;975;48.760;9.152;2023-02-28T04:12:29;6.78;;;2.97;;
1949;SDS011;975;48.760;9.152;2023-02-28T04:14:57;5.38;;;2.58;;
1949;SDS011;975;48.760;9.152;2023-02-28T04:17:24;4.47;;;2.80;;
1949;SDS011;975;48.760;9.152;2023-02-28T04:19:52;4.22;;;2.20;;
1949;SDS011;975;48.760;9.152;2023-02-28T04:22:24;5.68;;;2.78;;
1949;SDS011;975;48.760;9.152;2023-02-28T04:24:52;7.97;;;2.95;;
1949;SDS011;975;48.760;9.152;2023-02-28T04:27:22;6.10;;;2.50;;
1949;SDS011;975;48.760;9.152;2023-02-28T04:29:49;10.60;;;2.90;;
1949;SDS011;975;48.760;9.152;2023-02-28T04:32:17;11.30;;;3.28;;
1949;SDS011;975;48.760;9.152;2023-02-28T04:34:44;8.75;;;2.88;;
1949;SDS011;975;48.760;9.152;2023-02-28T04:37:15;8.65;;;3.03;;
1949;SDS011;975;48.760;9.152;2023-02-28T04:39:45;6.38;;;3.00;;
1949;SDS011;975;48.760;9.152;2023-02-28T04:42:13;7.13;;;2.60;;
1949;SDS011;975;48.760;9.152;2023-02-28T04:44:44;5.97;;;2.63;;
1949;SDS011;975;48.760;9.152;2023-02-28T04:47:12;5.55;;;3.08;;
1949;SDS011;975;48.760;9.152;2023-02-28T04:49:43;6.85;;;3.22;;
1949;SDS011;975;48.760;9.152;2023-02-28T04:52:16;4.75;;;3.10;;
1949;SDS011;975;48.760;9.152;2023-02-28T04:54:44;6.00;;;2.90;;
1949;SDS011;975;48.760;9.152;2023-02-28T04:57:12;8.30;;;3.00;;
1949;SDS011;975;48.760;9.152;2023-02-28T04:59:39;4.95;;;2.53;;
1949;SDS011;975;48.760;9.152;2023-02-28T05:02:08;7.68;;;3.72;;
1949;SDS011;975;48.760;9.152;2023-02-28T05:04:35;7.18;;;3.30;;
1949;SDS011;975;48.760;9.152;2023-02-28T05:07:03;8.07;;;3.22;;
1949;SDS011;975;48.760;9.152;2023-02-28T05:09:30;6.35;;;3.63;;
1949;SDS011;975;48.760;9.152;2023-02-28T05:11:59;6.88;;;3.30;;
1949;SDS011;975;48.760;9.152;2023-02-28T05:14:26;8.07;;;2.88;;
1949;SDS011;975;48.760;9.152;2023-02-28T05:16:53;6.95;;;3.15;;
1949;SDS011;975;48.760;9.152;2023-02-28T05:19:22;9.02;;;3.38;;
1949;SDS011;975;48.760;9.152;2023-02-28T05:21:50;4.45;;;3.05;;
1949;SDS011;975;48.760;9.152;2023-02-28T05:24:21;9.05;;;3.20;;
1949;SDS011;975;48.760;9.152;2023-02-28T05:26:49;8.02;;;2.85;;
1949;SDS011;975;48.760;9.152;2023-02-28T05:29:21;8.00;;;3.15;;
1949;SDS011;975;48.760;9.152;2023-02-28T05:31:48;6.78;;;3.42;;
1949;SDS011;975;48.760;9.152;2023-02-28T05:34:16;6.38;;;3.10;;
1949;SDS011;975;48.760;9.152;2023-02-28T05:36:44;5.80;;;3.10;;
1949;SDS011;975;48.760;9.152;2023-02-28T05:39:12;7.85;;;3.58;;
1949;SDS011;975;48.760;9.152;2023-02-28T05:41:40;6.95;;;3.25;;
1949;SDS011;975;48.760;9.152;2023-02-28T05:44:08;7.10;;;3.80;;
1949;SDS011;975;48.760;9.152;2023-02-28T05:46:37;6.30;;;3.88;;
1949;SDS011;975;48.760;9.152;2023-02-28T05:49:05;7.97;;;3.80;;
1949;SDS011;975;48.760;9.152;2023-02-28T05:51:32;7.22;;;3.15;;
1949;SDS011;975;48.760;9.152;2023-02-28T05:54:01;8.93;;;3.92;;
1949;SDS011;975;48.760;9.152;2023-02-28T05:56:28;7.30;;;3.55;;
1949;SDS011;975;48.760;9.152;2023-02-28T05:58:56;10.73;;;3.63;;
1949;SDS011;975;48.760;9.152;2023-02-28T06:01:24;6.32;;;3.50;;
1949;SDS011;975;48.760;9.152;2023-02-28T06:03:57;7.78;;;3.78;;
1949;SDS011;975;48.760;9.152;2023-02-28T06:06:25;9.93;;;3.92;;
1949;SDS011;975;48.760;9.152;2023-02-28T06:08:52;9.40;;;3.70;;
1949;SDS011;975;48.760;9.152;2023-02-28T06:11:21;6.93;;;3.10;;
1949;SDS011;975;48.760;9.152;2023-02-28T06:13:53;6.38;;;3.17;;
1949;SDS011;975;48.760;9.152;2023-02-28T06:16:22;6.43;;;3.70;;
1949;SDS011;975;48.760;9.152;2023-02-28T06:18:49;8.00;;;3.80;;
1949;SDS011;975;48.760;9.152;2023-02-28T06:21:18;8.35;;;4.10;;
1949;SDS011;975;48.760;9.152;2023-02-28T06:23:45;8.13;;;3.92;;
1949;SDS011;975;48.760;9.152;2023-02-28T06:26:12;8.88;;;3.72;;
1949;SDS011;975;48.760;9.152;2023-02-28T06:28:41;9.25;;;4.32;;
1949;SDS011;975;48.760;9.152;2023-02-28T06:31:08;10.32;;;3.85;;
1949;SDS011;975;48.760;9.152;2023-02-28T06:33:37;8.82;;;3.20;;
1949;SDS011;975;48.760;9.152;2023-02-28T06:36:06;9.88;;;4.18;;
1949;SDS011;975;48.760;9.152;2023-02-28T06:38:34;6.47;;;3.35;;
1949;SDS011;975;48.760;9.152;2023-02-28T06:41:02;7.00;;;3.78;;
1949;SDS011;975;48.760;9.152;2023-02-28T06:43:31;9.52;;;3.90;;
1949;SDS011;975;48.760;9.152;2023-02-28T06:46:02;9.13;;;4.00;;
1949;SDS011;975;48.760;9.152;2023-02-28T06:48:31;10.93;;;3.70;;
1949;SDS011;975;48.760;9.152;2023-02-28T06:51:03;9.50;;;4.20;;
1949;SDS011;975;48.760;9.152;2023-02-28T06:53:31;9.15;;;4.20;;
1949;SDS011;975;48.760;9.152;2023-02-28T06:55:58;9.25;;;4.20;;
1949;SDS011;975;48.760;9.152;2023-02-28T06:58:26;8.85;;;3.80;;
1949;SDS011;975;48.760;9.152;2023-02-28T07:00:53;8.25;;;3.60;;
1949;SDS011;975;48.760;9.152;2023-02-28T07:03:23;7.35;;;3.78;;
1949;SDS011;975;48.760;9.152;2023-02-28T07:05:50;9.32;;;4.43;;
1949;SDS011;975;48.760;9.152;2023-02-28T07:08:17;8.32;;;4.15;;
1949;SDS011;975;48.760;9.152;2023-02-28T07:10:44;11.00;;;4.40;;
1949;SDS011;975;48.760;9.152;2023-02-28T07:13:12;10.00;;;3.95;;
1949;SDS011;975;48.760;9.152;2023-02-28T07:15:39;8.82;;;4.25;;
1949;SDS011;975;48.760;9.152;2023-02-28T07:18:06;9.82;;;3.83;;
1949;SDS011;975;48.760;9.152;2023-02-28T07:20:35;11.40;;;5.38;;
1949;SDS011;975;48.760;9.152;2023-02-28T07:23:02;11.98;;;4.50;;
1949;SDS011;975;48.760;9.152;2023-02-28T07:25:29;11.10;;;4.90;;
1949;SDS011;975;48.760;9.152;2023-02-28T07:27:56;10.35;;;4.10;;
1949;SDS011;975;48.760;9.152;2023-02-28T07:30:24;9.48;;;4.20;;
1949;SDS011;975;48.760;9.152;2023-02-28T07:32:54;9.77;;;4.50;;
1949;SDS011;975;48.760;9.152;2023-02-28T07:35:22;9.73;;;4.97;;
1949;SDS011;975;48.760;9.152;2023-02-28T07:37:51;15.30;;;4.65;;
1949;SDS011;975;48.760;9.152;2023-02-28T07:40:18;8.82;;;3.60;;
1949;SDS011;975;48.760;9.152;2023-02-28T07:42:45;9.85;;;4.75;;
1949;SDS011;975;48.760;9.152;2023-02-28T07:45:13;10.55;;;4.30;;
1949;SDS011;975;48.760;9.152;2023-02-28T07:47:41;13.73;;;5.20;;
1949;SDS011;975;48.760;9.152;2023-02-28T07:50:09;8.68;;;4.15;;
1949;SDS011;975;48.760;9.152;2023-02-28T07:52:37;11.10;;;4.63;;
1949;SDS011;975;48.760;9.152;2023-02-28T07:55:10;10.43;;;4.38;;
1949;SDS011;975;48.760;9.152;2023-02-28T07:57:39;9.45;;;5.05;;
1949;SDS011;975;48.760;9.152;2023-02-28T08:00:07;11.00;;;5.18;;
1949;SDS011;975;48.760;9.152;2023-02-28T08:02:36;10.63;;;5.05;;
1949;SDS011;975;48.760;9.152;2023-02-28T08:05:04;8.02;;;4.32;;
1949;SDS011;975;48.760;9.152;2023-02-28T08:07:31;10.23;;;4.43;;
1949;SDS011;975;48.760;9.152;2023-02-28T08:09:59;12.45;;;5.90;;
1949;SDS011;975;48.760;9.152;2023-02-28T08:12:28;8.65;;;3.47;;
1949;SDS011;975;48.760;9.152;2023-02-28T08:14:55;9.32;;;4.78;;
1949;SDS011;975;48.760;9.152;2023-02-28T08:17:22;15.20;;;5.05;;
1949;SDS011;975;48.760;9.152;2023-02-28T08:19:49;12.63;;;5.40;;
1949;SDS011;975;48.760;9.152;2023-02-28T08:22:17;12.63;;;5.60;;
1949;SDS011;975;48.760;9.152;2023-02-28T08:24:44;13.27;;;5.38;;
1949;SDS011;975;48.760;9.152;2023-02-28T08:27:11;11.90;;;4.95;;
1949;SDS011;975;48.760;9.152;2023-02-28T08:29:40;12.98;;;4.90;;
1949;SDS011;975;48.760;9.152;2023-02-28T08:32:07;12.23;;;4.78;;
1949;SDS011;975;48.760;9.152;2023-02-28T08:34:34;9.43;;;4.93;;
1949;SDS011;975;48.760;9.152;2023-02-28T08:37:01;10.70;;;5.05;;
1949;SDS011;975;48.760;9.152;2023-02-28T08:39:29;9.13;;;4.53;;
1949;SDS011;975;48.760;9.152;2023-02-28T08:41:56;5.85;;;2.85;;
1949;SDS011;975;48.760;9.152;2023-02-28T08:44:23;9.07;;;4.75;;
1949;SDS011;975;48.760;9.152;2023-02-28T08:46:51;15.10;;;5.60;;
1949;SDS011;975;48.760;9.152;2023-02-28T08:49:18;10.57;;;5.15;;
1949;SDS011;975;48.760;9.152;2023-02-28T08:51:46;12.05;;;5.43;;
1949;SDS011;975;48.760;9.152;2023-02-28T08:54:13;12.02;;;4.53;;
1949;SDS011;975;48.760;9.152;2023-02-28T08:56:44;9.98;;;4.63;;
1949;SDS011;975;48.760;9.152;2023-02-28T08:59:12;10.88;;;5.47;;
1949;SDS011;975;48.760;9.152;2023-02-28T09:01:49;10.40;;;5.05;;
1949;SDS011;975;48.760;9.152;2023-02-28T09:04:17;13.02;;;5.75;;
1949;SDS011;975;48.760;9.152;2023-02-28T09:06:45;11.13;;;4.93;;
1949;SDS011;975;48.760;9.152;2023-02-28T09:09:14;12.35;;;4.97;;
1949;SDS011;975;48.760;9.152;2023-02-28T09:11:44;13.05;;;5.03;;
1949;SDS011;975;48.760;9.152;2023-02-28T09:14:14;11.23;;;4.35;;
1949;SDS011;975;48.760;9.152;2023-02-28T09:16:42;12.40;;;5.07;;
1949;SDS011;975;48.760;9.152;2023-02-28T09:19:10;12.77;;;5.43;;
1949;SDS011;975;48.760;9.152;2023-02-28T09:21:41;13.00;;;4.95;;
1949;SDS011;975;48.760;9.152;2023-02-28T09:26:46;11.30;;;6.18;;
1949;SDS011;975;48.760;9.152;2023-02-28T09:29:13;9.45;;;4.15;;
1949;SDS011;975;48.760;9.152;2023-02-28T09:31:42;10.63;;;5.32;;
1949;SDS011;975;48.760;9.152;2023-02-28T09:34:09;9.93;;;4.72;;
1949;SDS011;975;48.760;9.152;2023-02-28T09:36:36;9.45;;;4.35;;
1949;SDS011;975;48.760;9.152;2023-02-28T09:39:05;12.02;;;5.15;;
1949;SDS011;975;48.760;9.152;2023-02-28T09:41:36;10.52;;;5.43;;
1949;SDS011;975;48.760;9.152;2023-02-28T09:44:13;12.15;;;5.13;;
1949;SDS011;975;48.760;9.152;2023-02-28T09:46:47;10.60;;;4.55;;
1949;SDS011;975;48.760;9.152;2023-02-28T09:49:18;14.60;;;5.97;;
1949;SDS011;975;48.760;9.152;2023-02-28T09:51:53;13.05;;;5.70;;
1949;SDS011;975;48.760;9.152;2023-02-28T09:54:28;13.70;;;6.07;;
1949;SDS011;975;48.760;9.152;2023-02-28T09:57:06;11.32;;;5.30;;
1949;SDS011;975;48.760;9.152;2023-02-28T09:59:39;10.57;;;4.50;;
1949;SDS011;975;48.760;9.152;2023-02-28T10:02:19;10.18;;;5.03;;
1949;SDS011;975;48.760;9.152;2023-02-28T10:05:04;16.00;;;6.35;;
1949;SDS011;975;48.760;9.152;2023-02-28T10:07:42;11.45;;;5.07;;
1949;SDS011;975;48.760;9.152;2023-02-28T10:10:22;12.85;;;5.93;;
1949;SDS011;975;48.760;9.152;2023-02-28T10:12:55;10.98;;;5.60;;
1949;SDS011;975;48.760;9.152;2023-02-28T10:15:25;12.63;;;7.18;;
1949;SDS011;975;48.760;9.152;2023-02-28T10:17:57;14.13;;;6.68;;
1949;SDS011;975;48.760;9.152;2023-02-28T10:20:29;13.32;;;5.90;;
1949;SDS011;975;48.760;9.152;2023-02-28T10:23:04;12.60;;;5.60;;
1949;SDS011;975;48.760;9.152;2023-02-28T10:28:07;7.45;;;3.72;;
1949;SDS011;975;48.760;9.152;2023-02-28T10:30:36;8.82;;;3.05;;
1949;SDS011;975;48.760;9.152;2023-02-28T10:33:08;12.27;;;5.35;;
1949;SDS011;975;48.760;9.152;2023-02-28T10:35:45;14.43;;;5.47;;
1949;SDS011;975;48.760;9.152;2023-02-28T10:38:18;19.80;;;5.93;;
1949;SDS011;975;48.760;9.152;2023-02-28T10:40:49;10.48;;;4.10;;
1949;SDS011;975;48.760;9.152;2023-02-28T10:43:21;11.52;;;5.38;;
1949;SDS011;975;48.760;9.152;2023-02-28T10:45:55;10.30;;;4.95;;
1949;SDS011;975;48.760;9.152;2023-02-28T10:48:29;12.15;;;5.18;;
1949;SDS011;975;48.760;9.152;2023-02-28T10:50:57;14.90;;;5.75;;
1949;SDS011;975;48.760;9.152;2023-02-28T10:53:33;11.13;;;5.60;;
1949;SDS011;975;48.760;9.152;2023-02-28T10:56:02;11.52;;;5.55;;
1949;SDS011;975;48.760;9.152;2023-02-28T10:58:32;16.35;;;5.78;;
1949;SDS011;975;48.760;9.152;2023-02-28T11:01:11;10.98;;;5.63;;
1949;SDS011;975;48.760;9.152;2023-02-28T11:03:40;14.05;;;6.50;;
1949;SDS011;975;48.760;9.152;2023-02-28T11:06:08;10.40;;;5.15;;
1949;SDS011;975;48.760;9.152;2023-02-28T11:08:43;14.93;;;7.53;;
1949;SDS011;975;48.760;9.152;2023-02-28T11:11:11;13.77;;;5.80;;
1949;SDS011;975;48.760;9.152;2023-02-28T11:13:40;10.50;;;5.93;;
1949;SDS011;975;48.760;9.152;2023-02-28T11:16:08;13.52;;;5.93;;
1949;SDS011;975;48.760;9.152;2023-02-28T11:18:38;11.35;;;5.30;;
1949;SDS011;975;48.760;9.152;2023-02-28T11:21:07;13.63;;;6.43;;
1949;SDS011;975;48.760;9.152;2023-02-28T11:23:36;15.75;;;5.97;;
1949;SDS011;975;48.760;9.152;2023-02-28T11:26:07;13.48;;;6.43;;
1949;SDS011;975;48.760;9.152;2023-02-28T11:28:37;13.02;;;6.63;;
1949;SDS011;975;48.760;9.152;2023-02-28T11:31:16;11.20;;;6.15;;
1949;SDS011;975;48.760;9.152;2023-02-28T11:33:45;8.40;;;4.70;;
1949;SDS011;975;48.760;9.152;2023-02-28T11:36:19;13.27;;;6.63;;
1949;SDS011;975;48.760;9.152;2023-02-28T11:38:47;12.45;;;5.82;;
1949;SDS011;975;48.760;9.152;2023-02-28T11:41:27;15.55;;;6.75;;
1949;SDS011;975;48.760;9.152;2023-02-28T11:44:00;15.30;;;5.78;;
1949;SDS011;975;48.760;9.152;2023-02-28T11:46:32;13.90;;;6.28;;
1949;SDS011;975;48.760;9.152;2023-02-28T11:51:28;12.63;;;5.82;;
1949;SDS011;975;48.760;9.152;2023-02-28T11:54:02;10.50;;;5.15;;
1949;SDS011;975;48.760;9.152;2023-02-28T11:56:36;11.00;;;5.60;;
1949;SDS011;975;48.760;9.152;2023-02-28T11:59:10;10.25;;;5.28;;
1949;SDS011;975;48.760;9.152;2023-02-28T12:01:45;11.90;;;5.53;;
1949;SDS011;975;48.760;9.152;2023-02-28T12:04:17;13.10;;;5.95;;
1949;SDS011;975;48.760;9.152;2023-02-28T12:06:50;14.80;;;5.72;;
1949;SDS011;975;48.760;9.152;2023-02-28T12:12:12;11.65;;;5.65;;
1949;SDS011;975;48.760;9.152;2023-02-28T12:14:49;13.98;;;6.07;;
1949;SDS011;975;48.760;9.152;2023-02-28T12:17:24;11.45;;;6.00;;
1949;SDS011;975;48.760;9.152;2023-02-28T12:19:55;11.05;;;5.63;;
1949;SDS011;975;48.760;9.152;2023-02-28T12:22:29;12.98;;;5.57;;
1949;SDS011;975;48.760;9.152;2023-02-28T12:25:10;13.10;;;6.05;;
1949;SDS011;975;48.760;9.152;2023-02-28T12:27:47;9.98;;;5.60;;
1949;SDS011;975;48.760;9.152;2023-02-28T12:30:16;11.25;;;5.88;;
1949;SDS011;975;48.760;9.152;2023-02-28T12:32:49;14.15;;;5.50;;
1949;SDS011;975;48.760;9.152;2023-02-28T12:35:21;12.02;;;5.88;;
1949;SDS011;975;48.760;9.152;2023-02-28T12:37:50;11.48;;;6.38;;
1949;SDS011;975;48.760;9.152;2023-02-28T12:40:19;10.63;;;5.10;;
1949;SDS011;975;48.760;9.152;2023-02-28T12:42:48;17.38;;;7.18;;
1949;SDS011;975;48.760;9.152;2023-02-28T12:45:20;10.45;;;5.30;;
1949;SDS011;975;48.760;9.152;2023-02-28T12:47:51;10.32;;;5.43;;
1949;SDS011;975;48.760;9.152;2023-02-28T12:50:19;10.63;;;5.32;;
1949;SDS011;975;48.760;9.152;2023-02-28T12:52:50;11.75;;;5.63;;
1949;SDS011;975;48.760;9.152;2023-02-28T12:55:21;12.30;;;6.53;;
1949;SDS011;975;48.760;9.152;2023-02-28T12:57:52;11.38;;;5.60;;
1949;SDS011;975;48.760;9.152;2023-02-28T13:00:25;9.88;;;5.57;;
1949;SDS011;975;48.760;9.152;2023-02-28T13:03:06;14.55;;;5.63;;
1949;SDS011;975;48.760;9.152;2023-02-28T13:11:22;13.85;;;6.70;;
1949;SDS011;975;48.760;9.152;2023-02-28T13:13:55;10.80;;;5.65;;
1949;SDS011;975;48.760;9.152;2023-02-28T13:16:24;13.27;;;6.32;;
1949;SDS011;975;48.760;9.152;2023-02-28T13:18:52;9.68;;;5.35;;
1949;SDS011;975;48.760;9.152;2023-02-28T13:24:03;10.73;;;6.05;;
1949;SDS011;975;48.760;9.152;2023-02-28T13:34:32;13.05;;;6.55;;
1949;SDS011;975;48.760;9.152;2023-02-28T13:39:46;9.38;;;5.30;;
1949;SDS011;975;48.760;9.152;2023-02-28T13:42:23;11.63;;;6.47;;
1949;SDS011;975;48.760;9.152;2023-02-28T13:47:38;11.38;;;5.68;;
1949;SDS011;975;48.760;9.152;2023-02-28T13:50:20;12.23;;;6.10;;
1949;SDS011;975;48.760;9.152;2023-02-28T13:52:50;10.68;;;5.20;;
1949;SDS011;975;48.760;9.152;2023-02-28T13:55:28;12.50;;;5.80;;
1949;SDS011;975;48.760;9.152;2023-02-28T13:58:05;11.38;;;6.00;;
1949;SDS011;975;48.760;9.152;2023-02-28T14:00:43;10.98;;;5.68;;
1949;SDS011;975;48.760;9.152;2023-02-28T14:03:36;12.00;;;6.10;;
1949;SDS011;975;48.760;9.152;2023-02-28T14:06:16;13.82;;;6.18;;
1949;SDS011;975;48.760;9.152;2023-02-28T14:08:46;12.02;;;5.35;;
1949;SDS011;975;48.760;9.152;2023-02-28T14:11:25;9.48;;;5.80;;
1949;SDS011;975;48.760;9.152;2023-02-28T14:13:53;9.77;;;4.85;;
1949;SDS011;975;48.760;9.152;2023-02-28T14:16:22;9.70;;;4.88;;
1949;SDS011;975;48.760;9.152;2023-02-28T14:18:56;11.95;;;5.82;;
1949;SDS011;975;48.760;9.152;2023-02-28T14:21:27;12.35;;;5.22;;
1949;SDS011;975;48.760;9.152;2023-02-28T14:24:10;12.65;;;5.65;;
1949;SDS011;975;48.760;9.152;2023-02-28T14:26:51;10.52;;;5.43;;
1949;SDS011;975;48.760;9.152;2023-02-28T14:32:22;8.73;;;4.05;;
1949;SDS011;975;48.760;9.152;2023-02-28T14:34:58;11.10;;;5.15;;
1949;SDS011;975;48.760;9.152;2023-02-28T14:37:33;10.05;;;5.15;;
1949;SDS011;975;48.760;9.152;2023-02-28T14:40:11;9.65;;;4.57;;
1949;SDS011;975;48.760;9.152;2023-02-28T14:42:45;13.95;;;5.80;;
1949;SDS011;975;48.760;9.152;2023-02-28T14:45:17;11.30;;;5.30;;
1949;SDS011;975;48.760;9.152;2023-02-28T14:47:45;9.18;;;4.22;;
1949;SDS011;975;48.760;9.152;2023-02-28T14:50:17;11.60;;;5.05;;
1949;SDS011;975;48.760;9.152;2023-02-28T14:52:47;10.90;;;5.80;;
1949;SDS011;975;48.760;9.152;2023-02-28T14:55:18;11.13;;;4.45;;
1949;SDS011;975;48.760;9.152;2023-02-28T14:57:52;12.05;;;5.82;;
1949;SDS011;975;48.760;9.152;2023-02-28T15:00:22;10.90;;;5.40;;
1949;SDS011;975;48.760;9.152;2023-02-28T15:02:50;11.02;;;5.38;;
1949;SDS011;975;48.760;9.152;2023-02-28T15:05:28;13.57;;;5.45;;
1949;SDS011;975;48.760;9.152;2023-02-28T15:08:10;12.45;;;5.28;;
1949;SDS011;975;48.760;9.152;2023-02-28T15:10:39;11.52;;;5.00;;
1949;SDS011;975;48.760;9.152;2023-02-28T15:13:11;10.98;;;5.53;;
1949;SDS011;975;48.760;9.152;2023-02-28T15:15:42;11.20;;;5.55;;
1949;SDS011;975;48.760;9.152;2023-02-28T15:18:15;10.68;;;5.65;;
1949;SDS011;975;48.760;9.152;2023-02-28T15:20:49;10.00;;;5.15;;
1949;SDS011;975;48.760;9.152;2023-02-28T15:23:18;9.55;;;4.18;;
1949;SDS011;975;48.760;9.152;2023-02-28T15:25:47;11.45;;;5.20;;
1949;SDS011;975;48.760;9.152;2023-02-28T15:28:16;10.13;;;4.38;;
1949;SDS011;975;48.760;9.152;2023-02-28T15:30:53;11.50;;;5.78;;
1949;SDS011;975;48.760;9.152;2023-02-28T15:33:23;12.50;;;5.60;;
1949;SDS011;975;48.760;9.152;2023-02-28T15:35:51;11.10;;;4.88;;
1949;SDS011;975;48.760;9.152;2023-02-28T15:38:33;9.48;;;5.00;;
1949;SDS011;975;48.760;9.152;2023-02-28T15:41:02;11.85;;;5.97;;
1949;SDS011;975;48.760;9.152;2023-02-28T15:43:34;13.98;;;5.85;;
1949;SDS011;975;48.760;9.152;2023-02-28T15:46:03;11.38;;;5.75;;
1949;SDS011;975;48.760;9.152;2023-02-28T15:48:33;12.23;;;5.65;;
1949;SDS011;975;48.760;9.152;2023-02-28T15:51:04;10.50;;;5.53;;
1949;SDS011;975;48.760;9.152;2023-02-28T15:53:36;13.02;;;5.35;;
1949;SDS011;975;48.760;9.152;2023-02-28T15:58:53;12.15;;;6.20;;
1949;SDS011;975;48.760;9.152;2023-02-28T16:01:23;11.80;;;5.53;;
1949;SDS011;975;48.760;9.152;2023-02-28T16:03:53;13.10;;;6.38;;
1949;SDS011;975;48.760;9.152;2023-02-28T16:09:13;10.88;;;5.78;;
1949;SDS011;975;48.760;9.152;2023-02-28T16:11:45;11.10;;;5.88;;
1949;SDS011;975;48.760;9.152;2023-02-28T16:14:14;12.10;;;5.75;;
1949;SDS011;975;48.760;9.152;2023-02-28T16:16:43;10.73;;;5.57;;
1949;SDS011;975;48.760;9.152;2023-02-28T16:19:11;14.35;;;5.65;;
1949;SDS011;975;48.760;9.152;2023-02-28T16:21:38;12.27;;;6.18;;
1949;SDS011;975;48.760;9.152;2023-02-28T16:24:05;14.52;;;6.38;;
1949;SDS011;975;48.760;9.152;2023-02-28T16:26:35;13.18;;;6.10;;
1949;SDS011;975;48.760;9.152;2023-02-28T16:29:08;11.10;;;6.25;;